sensor_id;sensor_type;location;lat;lon;timestamp;P1;durP1;ratioP1;P2;durP2;ratioP2
9328;SDS011;4703;48.748;19.142;2022-12-20T00:01:26;46.83;;;27.10;;
9328;SDS011;4703;48.748;19.142;2022-12-20T00:03:57;42.40;;;26.97;;
9328;SDS011;4703;48.748;19.142;2022-12-20T00:06:27;42.80;;;26.60;;
9328;SDS011;4703;48.748;19.142;2022-12-20T00:08:58;45.47;;;26.87;;
9328;SDS011;4703;48.748;19.142;2022-12-20T00:11:27;45.17;;;27.90;;
9328;SDS011;4703;48.748;19.142;2022-12-20T00:13:56;39.70;;;25.13;;
9328;SDS011;4703;48.748;19.142;2022-12-20T00:16:24;44.30;;;24.63;;
9328;SDS011;4703;48.748;19.142;2022-12-20T00:18:56;49.97;;;26.77;;
9328;SDS011;4703;48.748;19.142;2022-12-20T00:21:25;43.10;;;25.13;;
9328;SDS011;4703;48.748;19.142;2022-12-20T00:23:53;40.83;;;24.07;;
9328;SDS011;4703;48.748;19.142;2022-12-20T00:26:22;32.50;;;23.20;;
9328;SDS011;4703;48.748;19.142;2022-12-20T00:28:52;35.63;;;25.23;;
9328;SDS011;4703;48.748;19.142;2022-12-20T00:31:20;39.07;;;23.33;;
9328;SDS011;4703;48.748;19.142;2022-12-20T00:33:50;40.13;;;24.13;;
9328;SDS011;4703;48.748;19.142;2022-12-20T00:36:20;39.50;;;25.90;;
9328;SDS011;4703;48.748;19.142;2022-12-20T00:38:49;32.90;;;22.43;;
9328;SDS011;4703;48.748;19.142;2022-12-20T00:41:24;42.30;;;23.70;;
9328;SDS011;4703;48.748;19.142;2022-12-20T00:43:55;37.10;;;23.30;;
9328;SDS011;4703;48.748;19.142;2022-12-20T00:46:22;36.43;;;23.67;;
9328;SDS011;4703;48.748;19.142;2022-12-20T00:48:50;34.17;;;21.87;;
9328;SDS011;4703;48.748;19.142;2022-12-20T00:51:18;35.73;;;23.23;;
9328;SDS011;4703;48.748;19.142;2022-12-20T00:53:49;38.43;;;22.60;;
9328;SDS011;4703;48.748;19.142;2022-12-20T00:56:16;31.53;;;22.20;;
9328;SDS011;4703;48.748;19.142;2022-12-20T00:58:43;30.17;;;20.80;;
9328;SDS011;4703;48.748;19.142;2022-12-20T01:01:21;33.93;;;21.63;;
9328;SDS011;4703;48.748;19.142;2022-12-20T01:03:51;28.53;;;21.93;;
9328;SDS011;4703;48.748;19.142;2022-12-20T01:06:20;30.47;;;21.40;;
9328;SDS011;4703;48.748;19.142;2022-12-20T01:08:50;31.60;;;21.00;;
9328;SDS011;4703;48.748;19.142;2022-12-20T01:11:20;28.40;;;20.43;;
9328;SDS011;4703;48.748;19.142;2022-12-20T01:13:59;29.90;;;19.50;;
9328;SDS011;4703;48.748;19.142;2022-12-20T01:16:40;29.70;;;20.60;;
9328;SDS011;4703;48.748;19.142;2022-12-20T01:19:11;34.83;;;20.07;;
9328;SDS011;4703;48.748;19.142;2022-12-20T01:21:40;33.17;;;20.03;;
9328;SDS011;4703;48.748;19.142;2022-12-20T01:24:10;28.00;;;19.60;;
9328;SDS011;4703;48.748;19.142;2022-12-20T01:26:44;26.40;;;20.67;;
9328;SDS011;4703;48.748;19.142;2022-12-20T01:29:12;29.57;;;20.40;;
9328;SDS011;4703;48.748;19.142;2022-12-20T01:31:40;25.57;;;18.37;;
9328;SDS011;4703;48.748;19.142;2022-12-20T01:34:08;29.20;;;19.27;;
9328;SDS011;4703;48.748;19.142;2022-12-20T01:36:35;26.47;;;17.17;;
9328;SDS011;4703;48.748;19.142;2022-12-20T01:41:34;23.77;;;17.30;;
9328;SDS011;4703;48.748;19.142;2022-12-20T01:44:04;25.73;;;15.93;;
9328;SDS011;4703;48.748;19.142;2022-12-20T01:46:43;21.93;;;16.90;;
9328;SDS011;4703;48.748;19.142;2022-12-20T01:49:13;29.90;;;18.47;;
9328;SDS011;4703;48.748;19.142;2022-12-20T01:51:44;27.17;;;19.33;;
9328;SDS011;4703;48.748;19.142;2022-12-20T01:54:18;28.63;;;18.20;;
9328;SDS011;4703;48.748;19.142;2022-12-20T01:56:58;29.87;;;18.97;;
9328;SDS011;4703;48.748;19.142;2022-12-20T01:59:30;23.10;;;17.10;;
9328;SDS011;4703;48.748;19.142;2022-12-20T02:02:02;27.00;;;16.60;;
9328;SDS011;4703;48.748;19.142;2022-12-20T02:04:33;25.10;;;16.70;;
9328;SDS011;4703;48.748;19.142;2022-12-20T02:07:00;24.47;;;16.60;;
9328;SDS011;4703;48.748;19.142;2022-12-20T02:09:29;21.23;;;15.63;;
9328;SDS011;4703;48.748;19.142;2022-12-20T02:14:48;23.80;;;16.00;;
9328;SDS011;4703;48.748;19.142;2022-12-20T02:32:47;23.87;;;17.90;;
9328;SDS011;4703;48.748;19.142;2022-12-20T02:35:28;22.80;;;17.20;;
9328;SDS011;4703;48.748;19.142;2022-12-20T02:38:00;28.47;;;17.83;;
9328;SDS011;4703;48.748;19.142;2022-12-20T02:40:50;22.73;;;16.47;;
9328;SDS011;4703;48.748;19.142;2022-12-20T02:43:40;25.67;;;17.20;;
9328;SDS011;4703;48.748;19.142;2022-12-20T02:46:29;25.83;;;15.93;;
9328;SDS011;4703;48.748;19.142;2022-12-20T02:49:00;20.80;;;16.97;;
9328;SDS011;4703;48.748;19.142;2022-12-20T02:51:31;25.67;;;16.70;;
9328;SDS011;4703;48.748;19.142;2022-12-20T02:53:59;18.20;;;15.53;;
9328;SDS011;4703;48.748;19.142;2022-12-20T02:59:12;21.03;;;15.20;;
9328;SDS011;4703;48.748;19.142;2022-12-20T03:01:46;25.90;;;17.43;;
9328;SDS011;4703;48.748;19.142;2022-12-20T03:04:17;23.30;;;16.97;;
9328;SDS011;4703;48.748;19.142;2022-12-20T03:09:25;25.10;;;17.60;;
9328;SDS011;4703;48.748;19.142;2022-12-20T03:11:53;26.47;;;17.77;;
9328;SDS011;4703;48.748;19.142;2022-12-20T03:14:21;21.30;;;17.30;;
9328;SDS011;4703;48.748;19.142;2022-12-20T03:16:48;25.80;;;18.17;;
9328;SDS011;4703;48.748;19.142;2022-12-20T03:19:15;24.63;;;16.00;;
9328;SDS011;4703;48.748;19.142;2022-12-20T03:21:42;27.27;;;17.77;;
9328;SDS011;4703;48.748;19.142;2022-12-20T03:24:10;24.53;;;17.47;;
9328;SDS011;4703;48.748;19.142;2022-12-20T03:26:39;23.07;;;15.60;;
9328;SDS011;4703;48.748;19.142;2022-12-20T03:29:06;24.27;;;16.47;;
9328;SDS011;4703;48.748;19.142;2022-12-20T03:31:33;24.67;;;17.30;;
9328;SDS011;4703;48.748;19.142;2022-12-20T03:34:02;24.87;;;17.07;;
9328;SDS011;4703;48.748;19.142;2022-12-20T03:36:29;22.43;;;15.83;;
9328;SDS011;4703;48.748;19.142;2022-12-20T03:38:56;24.57;;;17.03;;
9328;SDS011;4703;48.748;19.142;2022-12-20T03:41:23;26.17;;;17.23;;
9328;SDS011;4703;48.748;19.142;2022-12-20T03:43:51;21.47;;;16.40;;
9328;SDS011;4703;48.748;19.142;2022-12-20T03:46:18;25.03;;;16.57;;
9328;SDS011;4703;48.748;19.142;2022-12-20T03:48:45;23.80;;;16.27;;
9328;SDS011;4703;48.748;19.142;2022-12-20T03:51:12;23.87;;;14.17;;
9328;SDS011;4703;48.748;19.142;2022-12-20T03:53:39;20.90;;;14.90;;
9328;SDS011;4703;48.748;19.142;2022-12-20T03:56:06;21.33;;;14.63;;
9328;SDS011;4703;48.748;19.142;2022-12-20T03:58:33;22.13;;;16.80;;
9328;SDS011;4703;48.748;19.142;2022-12-20T04:01:00;22.27;;;15.60;;
9328;SDS011;4703;48.748;19.142;2022-12-20T04:03:27;25.67;;;16.40;;
9328;SDS011;4703;48.748;19.142;2022-12-20T04:05:54;22.77;;;15.90;;
9328;SDS011;4703;48.748;19.142;2022-12-20T04:08:21;23.40;;;16.13;;
9328;SDS011;4703;48.748;19.142;2022-12-20T04:10:48;25.73;;;15.03;;
9328;SDS011;4703;48.748;19.142;2022-12-20T04:13:34;22.23;;;15.23;;
9328;SDS011;4703;48.748;19.142;2022-12-20T04:16:00;21.70;;;14.80;;
9328;SDS011;4703;48.748;19.142;2022-12-20T04:18:27;20.57;;;15.07;;
9328;SDS011;4703;48.748;19.142;2022-12-20T04:20:54;22.20;;;15.67;;
9328;SDS011;4703;48.748;19.142;2022-12-20T04:23:21;22.40;;;15.90;;
9328;SDS011;4703;48.748;19.142;2022-12-20T04:25:48;19.60;;;15.43;;
9328;SDS011;4703;48.748;19.142;2022-12-20T04:28:15;20.07;;;15.30;;
9328;SDS011;4703;48.748;19.142;2022-12-20T04:30:42;22.53;;;15.00;;
9328;SDS011;4703;48.748;19.142;2022-12-20T04:33:09;23.67;;;15.57;;
9328;SDS011;4703;48.748;19.142;2022-12-20T04:35:36;21.07;;;14.97;;
9328;SDS011;4703;48.748;19.142;2022-12-20T04:38:03;21.03;;;14.90;;
9328;SDS011;4703;48.748;19.142;2022-12-20T04:40:30;24.80;;;16.17;;
9328;SDS011;4703;48.748;19.142;2022-12-20T04:42:57;19.50;;;14.47;;
9328;SDS011;4703;48.748;19.142;2022-12-20T04:45:24;24.43;;;16.73;;
9328;SDS011;4703;48.748;19.142;2022-12-20T04:47:51;25.70;;;16.63;;
9328;SDS011;4703;48.748;19.142;2022-12-20T04:50:18;27.53;;;17.57;;
9328;SDS011;4703;48.748;19.142;2022-12-20T04:52:45;25.13;;;18.67;;
9328;SDS011;4703;48.748;19.142;2022-12-20T04:55:35;29.00;;;18.57;;
9328;SDS011;4703;48.748;19.142;2022-12-20T04:58:03;25.57;;;16.10;;
9328;SDS011;4703;48.748;19.142;2022-12-20T05:00:33;32.63;;;23.37;;
9328;SDS011;4703;48.748;19.142;2022-12-20T05:03:00;76.47;;;49.30;;
9328;SDS011;4703;48.748;19.142;2022-12-20T05:05:27;65.87;;;44.10;;
9328;SDS011;4703;48.748;19.142;2022-12-20T05:07:54;33.10;;;21.80;;
9328;SDS011;4703;48.748;19.142;2022-12-20T05:10:21;31.77;;;22.10;;
9328;SDS011;4703;48.748;19.142;2022-12-20T05:12:49;38.20;;;26.23;;
9328;SDS011;4703;48.748;19.142;2022-12-20T05:15:16;29.30;;;19.40;;
9328;SDS011;4703;48.748;19.142;2022-12-20T05:17:43;27.20;;;18.30;;
9328;SDS011;4703;48.748;19.142;2022-12-20T05:20:10;25.53;;;17.97;;
9328;SDS011;4703;48.748;19.142;2022-12-20T05:22:38;23.93;;;16.50;;
9328;SDS011;4703;48.748;19.142;2022-12-20T05:25:23;26.73;;;18.30;;
9328;SDS011;4703;48.748;19.142;2022-12-20T05:28:09;23.57;;;16.60;;
9328;SDS011;4703;48.748;19.142;2022-12-20T05:30:36;22.87;;;16.70;;
9328;SDS011;4703;48.748;19.142;2022-12-20T05:33:03;23.90;;;16.67;;
9328;SDS011;4703;48.748;19.142;2022-12-20T05:35:30;26.17;;;18.27;;
9328;SDS011;4703;48.748;19.142;2022-12-20T05:37:57;27.07;;;19.07;;
9328;SDS011;4703;48.748;19.142;2022-12-20T05:40:24;28.57;;;17.63;;
9328;SDS011;4703;48.748;19.142;2022-12-20T05:42:51;32.27;;;19.40;;
9328;SDS011;4703;48.748;19.142;2022-12-20T05:45:19;25.77;;;17.90;;
9328;SDS011;4703;48.748;19.142;2022-12-20T05:47:46;23.73;;;18.03;;
9328;SDS011;4703;48.748;19.142;2022-12-20T05:50:13;21.63;;;17.80;;
9328;SDS011;4703;48.748;19.142;2022-12-20T05:52:44;23.00;;;17.50;;
9328;SDS011;4703;48.748;19.142;2022-12-20T05:55:11;30.13;;;20.03;;
9328;SDS011;4703;48.748;19.142;2022-12-20T05:57:38;29.80;;;18.57;;
9328;SDS011;4703;48.748;19.142;2022-12-20T06:00:06;27.20;;;19.00;;
9328;SDS011;4703;48.748;19.142;2022-12-20T06:02:33;27.50;;;19.23;;
9328;SDS011;4703;48.748;19.142;2022-12-20T06:05:01;25.60;;;20.27;;
9328;SDS011;4703;48.748;19.142;2022-12-20T06:07:28;26.40;;;19.63;;
9328;SDS011;4703;48.748;19.142;2022-12-20T06:09:55;30.17;;;20.03;;
9328;SDS011;4703;48.748;19.142;2022-12-20T06:12:22;23.50;;;17.60;;
9328;SDS011;4703;48.748;19.142;2022-12-20T06:14:50;35.60;;;26.10;;
9328;SDS011;4703;48.748;19.142;2022-12-20T06:17:17;79.27;;;49.37;;
9328;SDS011;4703;48.748;19.142;2022-12-20T06:19:45;57.93;;;39.30;;
9328;SDS011;4703;48.748;19.142;2022-12-20T06:22:12;34.00;;;22.57;;
9328;SDS011;4703;48.748;19.142;2022-12-20T06:24:39;27.60;;;19.23;;
9328;SDS011;4703;48.748;19.142;2022-12-20T06:27:13;28.70;;;19.13;;
9328;SDS011;4703;48.748;19.142;2022-12-20T06:29:40;29.40;;;19.10;;
9328;SDS011;4703;48.748;19.142;2022-12-20T06:32:14;26.97;;;19.20;;
9328;SDS011;4703;48.748;19.142;2022-12-20T06:34:41;27.80;;;19.37;;
9328;SDS011;4703;48.748;19.142;2022-12-20T06:37:08;24.97;;;18.33;;
9328;SDS011;4703;48.748;19.142;2022-12-20T06:39:35;26.83;;;18.77;;
9328;SDS011;4703;48.748;19.142;2022-12-20T06:42:02;32.13;;;19.10;;
9328;SDS011;4703;48.748;19.142;2022-12-20T06:44:29;24.07;;;17.40;;
9328;SDS011;4703;48.748;19.142;2022-12-20T06:46:57;27.63;;;19.63;;
9328;SDS011;4703;48.748;19.142;2022-12-20T06:49:24;26.47;;;18.33;;
9328;SDS011;4703;48.748;19.142;2022-12-20T06:51:51;23.83;;;18.10;;
9328;SDS011;4703;48.748;19.142;2022-12-20T06:54:18;29.93;;;20.87;;
9328;SDS011;4703;48.748;19.142;2022-12-20T06:56:45;26.70;;;20.47;;
9328;SDS011;4703;48.748;19.142;2022-12-20T06:59:12;28.80;;;18.77;;
9328;SDS011;4703;48.748;19.142;2022-12-20T07:01:39;29.37;;;21.10;;
9328;SDS011;4703;48.748;19.142;2022-12-20T07:04:06;29.17;;;21.93;;
9328;SDS011;4703;48.748;19.142;2022-12-20T07:06:33;29.70;;;21.77;;
9328;SDS011;4703;48.748;19.142;2022-12-20T07:09:00;28.63;;;21.57;;
9328;SDS011;4703;48.748;19.142;2022-12-20T07:11:28;32.73;;;22.63;;
9328;SDS011;4703;48.748;19.142;2022-12-20T07:13:56;28.53;;;22.90;;
9328;SDS011;4703;48.748;19.142;2022-12-20T07:16:23;58.77;;;41.20;;
9328;SDS011;4703;48.748;19.142;2022-12-20T07:18:51;64.13;;;40.37;;
9328;SDS011;4703;48.748;19.142;2022-12-20T07:21:19;42.00;;;28.63;;
9328;SDS011;4703;48.748;19.142;2022-12-20T07:23:46;34.77;;;25.23;;
9328;SDS011;4703;48.748;19.142;2022-12-20T07:26:14;31.83;;;21.60;;
9328;SDS011;4703;48.748;19.142;2022-12-20T07:28:42;49.03;;;30.47;;
9328;SDS011;4703;48.748;19.142;2022-12-20T07:31:09;36.83;;;26.37;;
9328;SDS011;4703;48.748;19.142;2022-12-20T07:33:36;35.33;;;24.53;;
9328;SDS011;4703;48.748;19.142;2022-12-20T07:36:09;26.47;;;21.90;;
9328;SDS011;4703;48.748;19.142;2022-12-20T07:38:38;28.60;;;20.37;;
9328;SDS011;4703;48.748;19.142;2022-12-20T07:41:06;27.30;;;21.23;;
9328;SDS011;4703;48.748;19.142;2022-12-20T07:43:34;30.97;;;20.40;;
9328;SDS011;4703;48.748;19.142;2022-12-20T07:46:02;25.63;;;19.80;;
9328;SDS011;4703;48.748;19.142;2022-12-20T07:48:31;27.80;;;19.63;;
9328;SDS011;4703;48.748;19.142;2022-12-20T07:51:00;24.67;;;19.17;;
9328;SDS011;4703;48.748;19.142;2022-12-20T07:53:33;25.90;;;18.17;;
9328;SDS011;4703;48.748;19.142;2022-12-20T07:56:07;25.85;;;21.45;;
9328;SDS011;4703;48.748;19.142;2022-12-20T07:58:36;28.10;;;21.33;;
9328;SDS011;4703;48.748;19.142;2022-12-20T08:01:07;24.90;;;19.87;;
9328;SDS011;4703;48.748;19.142;2022-12-20T08:03:37;23.50;;;17.70;;
9328;SDS011;4703;48.748;19.142;2022-12-20T08:06:09;21.33;;;16.40;;
9328;SDS011;4703;48.748;19.142;2022-12-20T08:08:38;24.13;;;16.90;;
9328;SDS011;4703;48.748;19.142;2022-12-20T08:11:11;25.07;;;19.03;;
9328;SDS011;4703;48.748;19.142;2022-12-20T08:13:39;26.93;;;18.30;;
9328;SDS011;4703;48.748;19.142;2022-12-20T08:16:12;27.10;;;19.50;;
9328;SDS011;4703;48.748;19.142;2022-12-20T08:18:39;25.43;;;19.00;;
9328;SDS011;4703;48.748;19.142;2022-12-20T08:21:06;24.67;;;18.40;;
9328;SDS011;4703;48.748;19.142;2022-12-20T08:23:33;32.27;;;22.50;;
9328;SDS011;4703;48.748;19.142;2022-12-20T08:26:00;39.40;;;27.70;;
9328;SDS011;4703;48.748;19.142;2022-12-20T08:28:28;35.60;;;26.37;;
9328;SDS011;4703;48.748;19.142;2022-12-20T08:31:05;33.10;;;21.40;;
9328;SDS011;4703;48.748;19.142;2022-12-20T08:33:35;28.00;;;19.90;;
9328;SDS011;4703;48.748;19.142;2022-12-20T08:36:04;29.57;;;19.23;;
9328;SDS011;4703;48.748;19.142;2022-12-20T08:38:35;27.80;;;19.40;;
9328;SDS011;4703;48.748;19.142;2022-12-20T08:41:12;27.97;;;18.80;;
9328;SDS011;4703;48.748;19.142;2022-12-20T08:43:41;28.47;;;21.23;;
9328;SDS011;4703;48.748;19.142;2022-12-20T08:46:09;25.97;;;18.97;;
9328;SDS011;4703;48.748;19.142;2022-12-20T08:48:37;32.50;;;18.23;;
9328;SDS011;4703;48.748;19.142;2022-12-20T08:51:06;26.60;;;17.33;;
9328;SDS011;4703;48.748;19.142;2022-12-20T08:53:36;26.53;;;18.50;;
9328;SDS011;4703;48.748;19.142;2022-12-20T08:58:41;30.40;;;20.20;;
9328;SDS011;4703;48.748;19.142;2022-12-20T09:01:12;25.10;;;17.00;;
9328;SDS011;4703;48.748;19.142;2022-12-20T09:03:45;26.93;;;19.00;;
9328;SDS011;4703;48.748;19.142;2022-12-20T09:06:14;25.73;;;19.93;;
9328;SDS011;4703;48.748;19.142;2022-12-20T09:08:45;27.37;;;18.33;;
9328;SDS011;4703;48.748;19.142;2022-12-20T09:11:14;26.00;;;19.20;;
9328;SDS011;4703;48.748;19.142;2022-12-20T09:13:47;23.23;;;18.60;;
9328;SDS011;4703;48.748;19.142;2022-12-20T09:16:19;24.00;;;18.17;;
9328;SDS011;4703;48.748;19.142;2022-12-20T09:18:52;25.60;;;18.10;;
9328;SDS011;4703;48.748;19.142;2022-12-20T09:21:30;22.57;;;18.83;;
9328;SDS011;4703;48.748;19.142;2022-12-20T09:23:57;24.70;;;18.30;;
9328;SDS011;4703;48.748;19.142;2022-12-20T09:26:24;25.60;;;18.67;;
9328;SDS011;4703;48.748;19.142;2022-12-20T09:28:52;22.33;;;17.43;;
9328;SDS011;4703;48.748;19.142;2022-12-20T09:31:21;35.93;;;27.83;;
9328;SDS011;4703;48.748;19.142;2022-12-20T09:33:53;44.00;;;30.40;;
9328;SDS011;4703;48.748;19.142;2022-12-20T09:36:24;36.40;;;27.67;;
9328;SDS011;4703;48.748;19.142;2022-12-20T09:38:53;27.67;;;20.90;;
9328;SDS011;4703;48.748;19.142;2022-12-20T09:44:18;22.00;;;17.30;;
9328;SDS011;4703;48.748;19.142;2022-12-20T09:47:03;24.13;;;19.20;;
9328;SDS011;4703;48.748;19.142;2022-12-20T09:49:42;28.77;;;18.50;;
9328;SDS011;4703;48.748;19.142;2022-12-20T09:52:30;25.57;;;19.63;;
9328;SDS011;4703;48.748;19.142;2022-12-20T09:55:33;25.37;;;18.03;;
9328;SDS011;4703;48.748;19.142;2022-12-20T09:58:21;23.37;;;16.70;;
9328;SDS011;4703;48.748;19.142;2022-12-20T10:01:15;23.57;;;16.70;;
9328;SDS011;4703;48.748;19.142;2022-12-20T10:03:51;25.97;;;17.90;;
9328;SDS011;4703;48.748;19.142;2022-12-20T10:15:37;21.13;;;15.03;;
9328;SDS011;4703;48.748;19.142;2022-12-20T10:21:20;19.73;;;14.93;;
9328;SDS011;4703;48.748;19.142;2022-12-20T10:24:29;21.07;;;15.20;;
9328;SDS011;4703;48.748;19.142;2022-12-20T10:27:18;21.60;;;16.17;;
9328;SDS011;4703;48.748;19.142;2022-12-20T10:29:46;22.00;;;16.03;;
9328;SDS011;4703;48.748;19.142;2022-12-20T10:32:16;24.27;;;15.77;;
9328;SDS011;4703;48.748;19.142;2022-12-20T10:34:54;22.33;;;15.03;;
9328;SDS011;4703;48.748;19.142;2022-12-20T10:37:35;19.67;;;16.30;;
9328;SDS011;4703;48.748;19.142;2022-12-20T10:40:11;20.60;;;14.33;;
9328;SDS011;4703;48.748;19.142;2022-12-20T10:43:20;17.10;;;12.47;;
9328;SDS011;4703;48.748;19.142;2022-12-20T10:45:58;20.00;;;13.93;;
9328;SDS011;4703;48.748;19.142;2022-12-20T10:48:30;30.20;;;19.70;;
9328;SDS011;4703;48.748;19.142;2022-12-20T10:51:03;24.80;;;17.93;;
9328;SDS011;4703;48.748;19.142;2022-12-20T10:53:58;16.20;;;12.27;;
9328;SDS011;4703;48.748;19.142;2022-12-20T10:56:31;16.10;;;12.40;;
9328;SDS011;4703;48.748;19.142;2022-12-20T11:01:50;14.27;;;11.00;;
9328;SDS011;4703;48.748;19.142;2022-12-20T11:06:58;17.63;;;12.30;;
9328;SDS011;4703;48.748;19.142;2022-12-20T11:09:57;14.10;;;10.63;;
9328;SDS011;4703;48.748;19.142;2022-12-20T11:12:52;14.90;;;12.60;;
9328;SDS011;4703;48.748;19.142;2022-12-20T11:15:23;16.10;;;11.40;;
9328;SDS011;4703;48.748;19.142;2022-12-20T11:18:14;18.30;;;11.20;;
9328;SDS011;4703;48.748;19.142;2022-12-20T11:27:41;14.63;;;11.30;;
9328;SDS011;4703;48.748;19.142;2022-12-20T11:30:31;14.30;;;10.63;;
9328;SDS011;4703;48.748;19.142;2022-12-20T11:41:31;13.27;;;9.73;;
9328;SDS011;4703;48.748;19.142;2022-12-20T11:44:19;13.77;;;9.43;;
9328;SDS011;4703;48.748;19.142;2022-12-20T11:53:17;15.10;;;10.50;;
9328;SDS011;4703;48.748;19.142;2022-12-20T11:56:06;12.97;;;9.43;;
9328;SDS011;4703;48.748;19.142;2022-12-20T12:04:39;13.80;;;10.47;;
9328;SDS011;4703;48.748;19.142;2022-12-20T12:07:33;10.23;;;8.63;;
9328;SDS011;4703;48.748;19.142;2022-12-20T12:18:10;11.33;;;8.90;;
9328;SDS011;4703;48.748;19.142;2022-12-20T12:26:26;13.00;;;9.03;;
9328;SDS011;4703;48.748;19.142;2022-12-20T12:29:00;14.90;;;9.93;;
9328;SDS011;4703;48.748;19.142;2022-12-20T12:46:10;14.93;;;10.10;;
9328;SDS011;4703;48.748;19.142;2022-12-20T12:48:53;13.90;;;9.40;;
9328;SDS011;4703;48.748;19.142;2022-12-20T12:51:51;18.87;;;12.73;;
9328;SDS011;4703;48.748;19.142;2022-12-20T12:54:28;11.37;;;9.37;;
9328;SDS011;4703;48.748;19.142;2022-12-20T12:57:09;11.47;;;9.03;;
9328;SDS011;4703;48.748;19.142;2022-12-20T12:59:43;12.13;;;9.37;;
9328;SDS011;4703;48.748;19.142;2022-12-20T13:09:59;9.63;;;8.60;;
9328;SDS011;4703;48.748;19.142;2022-12-20T13:20:17;12.50;;;9.83;;
9328;SDS011;4703;48.748;19.142;2022-12-20T13:25:34;17.13;;;12.33;;
9328;SDS011;4703;48.748;19.142;2022-12-20T13:38:54;13.33;;;10.80;;
9328;SDS011;4703;48.748;19.142;2022-12-20T13:41:31;13.90;;;10.37;;
9328;SDS011;4703;48.748;19.142;2022-12-20T13:49:28;12.23;;;9.87;;
9328;SDS011;4703;48.748;19.142;2022-12-20T13:52:11;10.87;;;9.50;;
9328;SDS011;4703;48.748;19.142;2022-12-20T13:54:58;12.77;;;9.87;;
9328;SDS011;4703;48.748;19.142;2022-12-20T13:57:38;13.33;;;11.00;;
9328;SDS011;4703;48.748;19.142;2022-12-20T14:00:16;14.87;;;10.70;;
9328;SDS011;4703;48.748;19.142;2022-12-20T14:02:48;15.30;;;9.97;;
9328;SDS011;4703;48.748;19.142;2022-12-20T14:05:35;14.67;;;10.70;;
9328;SDS011;4703;48.748;19.142;2022-12-20T14:08:04;16.53;;;10.97;;
9328;SDS011;4703;48.748;19.142;2022-12-20T14:10:40;13.83;;;11.63;;
9328;SDS011;4703;48.748;19.142;2022-12-20T14:13:41;14.50;;;11.03;;
9328;SDS011;4703;48.748;19.142;2022-12-20T14:16:09;15.70;;;10.00;;
9328;SDS011;4703;48.748;19.142;2022-12-20T14:18:41;15.10;;;10.80;;
9328;SDS011;4703;48.748;19.142;2022-12-20T14:21:25;13.00;;;10.83;;
9328;SDS011;4703;48.748;19.142;2022-12-20T14:23:53;19.53;;;11.23;;
9328;SDS011;4703;48.748;19.142;2022-12-20T14:26:27;21.67;;;9.63;;
9328;SDS011;4703;48.748;19.142;2022-12-20T14:28:59;14.67;;;10.37;;
9328;SDS011;4703;48.748;19.142;2022-12-20T14:31:27;14.47;;;10.73;;
9328;SDS011;4703;48.748;19.142;2022-12-20T14:34:05;14.10;;;9.27;;
9328;SDS011;4703;48.748;19.142;2022-12-20T14:36:43;12.97;;;9.90;;
9328;SDS011;4703;48.748;19.142;2022-12-20T14:39:23;14.57;;;10.40;;
9328;SDS011;4703;48.748;19.142;2022-12-20T14:41:55;14.73;;;11.20;;
9328;SDS011;4703;48.748;19.142;2022-12-20T14:44:34;12.67;;;9.40;;
9328;SDS011;4703;48.748;19.142;2022-12-20T14:47:15;13.77;;;11.20;;
9328;SDS011;4703;48.748;19.142;2022-12-20T14:49:48;17.10;;;11.47;;
9328;SDS011;4703;48.748;19.142;2022-12-20T14:52:30;12.87;;;10.57;;
9328;SDS011;4703;48.748;19.142;2022-12-20T15:00:22;20.50;;;14.97;;
9328;SDS011;4703;48.748;19.142;2022-12-20T15:10:40;20.03;;;15.60;;
9328;SDS011;4703;48.748;19.142;2022-12-20T15:16:11;19.87;;;14.43;;
9328;SDS011;4703;48.748;19.142;2022-12-20T15:18:51;18.70;;;13.17;;
9328;SDS011;4703;48.748;19.142;2022-12-20T15:24:01;18.83;;;12.43;;
9328;SDS011;4703;48.748;19.142;2022-12-20T15:26:35;19.50;;;13.20;;
9328;SDS011;4703;48.748;19.142;2022-12-20T15:29:03;20.00;;;15.27;;
9328;SDS011;4703;48.748;19.142;2022-12-20T15:31:32;22.27;;;16.17;;
9328;SDS011;4703;48.748;19.142;2022-12-20T15:34:18;26.30;;;19.00;;
9328;SDS011;4703;48.748;19.142;2022-12-20T15:36:54;27.63;;;20.37;;
9328;SDS011;4703;48.748;19.142;2022-12-20T15:39:22;26.47;;;20.10;;
9328;SDS011;4703;48.748;19.142;2022-12-20T15:41:49;34.60;;;23.17;;
9328;SDS011;4703;48.748;19.142;2022-12-20T15:44:21;30.87;;;22.13;;
9328;SDS011;4703;48.748;19.142;2022-12-20T15:46:51;33.20;;;24.17;;
9328;SDS011;4703;48.748;19.142;2022-12-20T15:49:19;31.47;;;23.00;;
9328;SDS011;4703;48.748;19.142;2022-12-20T15:51:55;30.10;;;23.57;;
9328;SDS011;4703;48.748;19.142;2022-12-20T15:57:03;38.67;;;24.77;;
9328;SDS011;4703;48.748;19.142;2022-12-20T15:59:35;33.63;;;23.80;;
9328;SDS011;4703;48.748;19.142;2022-12-20T16:02:23;38.17;;;26.60;;
9328;SDS011;4703;48.748;19.142;2022-12-20T16:04:53;33.77;;;24.87;;
9328;SDS011;4703;48.748;19.142;2022-12-20T16:07:20;32.37;;;23.73;;
9328;SDS011;4703;48.748;19.142;2022-12-20T16:09:48;33.27;;;25.00;;
9328;SDS011;4703;48.748;19.142;2022-12-20T16:12:26;36.30;;;25.20;;
9328;SDS011;4703;48.748;19.142;2022-12-20T16:14:58;32.07;;;24.33;;
9328;SDS011;4703;48.748;19.142;2022-12-20T16:17:24;40.50;;;27.63;;
9328;SDS011;4703;48.748;19.142;2022-12-20T16:19:51;42.13;;;28.10;;
9328;SDS011;4703;48.748;19.142;2022-12-20T16:22:19;41.33;;;28.63;;
9328;SDS011;4703;48.748;19.142;2022-12-20T16:24:49;34.47;;;26.53;;
9328;SDS011;4703;48.748;19.142;2022-12-20T16:27:17;32.00;;;26.73;;
9328;SDS011;4703;48.748;19.142;2022-12-20T16:29:45;40.37;;;27.47;;
9328;SDS011;4703;48.748;19.142;2022-12-20T16:32:16;36.40;;;24.90;;
9328;SDS011;4703;48.748;19.142;2022-12-20T16:34:45;35.23;;;24.30;;
9328;SDS011;4703;48.748;19.142;2022-12-20T16:37:14;31.33;;;21.70;;
9328;SDS011;4703;48.748;19.142;2022-12-20T16:39:43;31.10;;;21.90;;
9328;SDS011;4703;48.748;19.142;2022-12-20T16:42:11;30.07;;;22.53;;
9328;SDS011;4703;48.748;19.142;2022-12-20T16:44:43;30.90;;;25.03;;
9328;SDS011;4703;48.748;19.142;2022-12-20T16:47:11;37.30;;;23.70;;
9328;SDS011;4703;48.748;19.142;2022-12-20T16:49:40;36.90;;;25.40;;
9328;SDS011;4703;48.748;19.142;2022-12-20T16:52:17;29.77;;;21.67;;
9328;SDS011;4703;48.748;19.142;2022-12-20T16:54:45;26.30;;;21.27;;
9328;SDS011;4703;48.748;19.142;2022-12-20T16:57:12;29.50;;;22.20;;
9328;SDS011;4703;48.748;19.142;2022-12-20T16:59:39;26.70;;;20.23;;
9328;SDS011;4703;48.748;19.142;2022-12-20T17:02:21;28.27;;;20.60;;
9328;SDS011;4703;48.748;19.142;2022-12-20T17:04:53;27.20;;;19.20;;
9328;SDS011;4703;48.748;19.142;2022-12-20T17:07:20;28.43;;;21.07;;
9328;SDS011;4703;48.748;19.142;2022-12-20T17:09:47;28.27;;;19.37;;
9328;SDS011;4703;48.748;19.142;2022-12-20T17:12:32;29.53;;;19.27;;
9328;SDS011;4703;48.748;19.142;2022-12-20T17:14:59;32.23;;;19.80;;
9328;SDS011;4703;48.748;19.142;2022-12-20T17:17:26;28.53;;;19.20;;
9328;SDS011;4703;48.748;19.142;2022-12-20T17:19:53;22.03;;;18.43;;
9328;SDS011;4703;48.748;19.142;2022-12-20T17:22:20;25.10;;;19.87;;
9328;SDS011;4703;48.748;19.142;2022-12-20T17:25:04;24.23;;;17.80;;
9328;SDS011;4703;48.748;19.142;2022-12-20T17:27:42;22.17;;;18.10;;
9328;SDS011;4703;48.748;19.142;2022-12-20T17:30:09;22.23;;;16.20;;
9328;SDS011;4703;48.748;19.142;2022-12-20T17:32:37;27.73;;;18.80;;
9328;SDS011;4703;48.748;19.142;2022-12-20T17:35:05;27.33;;;18.73;;
9328;SDS011;4703;48.748;19.142;2022-12-20T17:37:38;23.87;;;16.30;;
9328;SDS011;4703;48.748;19.142;2022-12-20T17:40:05;27.77;;;18.27;;
9328;SDS011;4703;48.748;19.142;2022-12-20T17:42:32;28.70;;;19.00;;
9328;SDS011;4703;48.748;19.142;2022-12-20T17:44:59;27.57;;;18.90;;